sensor_id;sensor_type;location;lat;lon;timestamp;temperature;humidity
27226;DHT22;14732;51.074;3.788;2024-03-25T00:02:02;5.80;99.90
27226;DHT22;14732;51.074;3.788;2024-03-25T00:04:28;5.80;99.90
27226;DHT22;14732;51.074;3.788;2024-03-25T00:06:54;5.70;99.90
27226;DHT22;14732;51.074;3.788;2024-03-25T00:09:20;5.70;99.90
27226;DHT22;14732;51.074;3.788;2024-03-25T00:11:46;5.70;99.90
27226;DHT22;14732;51.074;3.788;2024-03-25T00:14:11;5.60;99.90
27226;DHT22;14732;51.074;3.788;2024-03-25T00:16:37;5.60;99.90
27226;DHT22;14732;51.074;3.788;2024-03-25T00:19:03;5.50;99.90
27226;DHT22;14732;51.074;3.788;2024-03-25T00:21:28;5.50;99.90
27226;DHT22;14732;51.074;3.788;2024-03-25T00:23:54;5.50;99.90
27226;DHT22;14732;51.074;3.788;2024-03-25T00:26:26;5.50;99.90
27226;DHT22;14732;51.074;3.788;2024-03-25T00:28:51;5.50;99.90
27226;DHT22;14732;51.074;3.788;2024-03-25T00:31:17;5.50;99.90
27226;DHT22;14732;51.074;3.788;2024-03-25T00:33:43;5.50;99.90
27226;DHT22;14732;51.074;3.788;2024-03-25T00:36:09;5.50;99.90
27226;DHT22;14732;51.074;3.788;2024-03-25T00:38:35;5.50;99.90
27226;DHT22;14732;51.074;3.788;2024-03-25T00:41:00;5.50;99.90
27226;DHT22;14732;51.074;3.788;2024-03-25T00:43:26;5.50;99.90
27226;DHT22;14732;51.074;3.788;2024-03-25T00:45:52;5.40;99.90
27226;DHT22;14732;51.074;3.788;2024-03-25T00:48:17;5.50;99.90
27226;DHT22;14732;51.074;3.788;2024-03-25T00:50:43;5.50;99.90
27226;DHT22;14732;51.074;3.788;2024-03-25T00:53:08;5.30;99.90
27226;DHT22;14732;51.074;3.788;2024-03-25T00:55:34;5.30;99.90
27226;DHT22;14732;51.074;3.788;2024-03-25T00:58:02;5.30;99.90
27226;DHT22;14732;51.074;3.788;2024-03-25T01:00:27;5.20;99.90
27226;DHT22;14732;51.074;3.788;2024-03-25T01:02:53;5.20;99.90
27226;DHT22;14732;51.074;3.788;2024-03-25T01:05:19;5.20;99.90
27226;DHT22;14732;51.074;3.788;2024-03-25T01:07:44;5.20;99.90
27226;DHT22;14732;51.074;3.788;2024-03-25T01:10:10;5.10;99.90
27226;DHT22;14732;51.074;3.788;2024-03-25T01:12:35;5.10;99.90
27226;DHT22;14732;51.074;3.788;2024-03-25T01:15:01;5.20;99.90
27226;DHT22;14732;51.074;3.788;2024-03-25T01:17:28;5.10;99.90
27226;DHT22;14732;51.074;3.788;2024-03-25T01:19:54;5.10;99.90
27226;DHT22;14732;51.074;3.788;2024-03-25T01:22:19;5.10;99.90
27226;DHT22;14732;51.074;3.788;2024-03-25T01:24:45;5.10;99.90
27226;DHT22;14732;51.074;3.788;2024-03-25T01:27:10;5.20;99.90
27226;DHT22;14732;51.074;3.788;2024-03-25T01:29:36;5.00;99.90
27226;DHT22;14732;51.074;3.788;2024-03-25T01:32:02;5.00;99.90
27226;DHT22;14732;51.074;3.788;2024-03-25T01:34:29;4.90;99.90
27226;DHT22;14732;51.074;3.788;2024-03-25T01:36:55;4.90;99.90
27226;DHT22;14732;51.074;3.788;2024-03-25T01:39:21;5.00;99.90
27226;DHT22;14732;51.074;3.788;2024-03-25T01:41:47;4.90;99.90
27226;DHT22;14732;51.074;3.788;2024-03-25T01:44:12;4.90;99.90
27226;DHT22;14732;51.074;3.788;2024-03-25T01:46:38;4.80;99.90
27226;DHT22;14732;51.074;3.788;2024-03-25T01:49:05;4.90;99.90
27226;DHT22;14732;51.074;3.788;2024-03-25T01:51:31;4.80;99.90
27226;DHT22;14732;51.074;3.788;2024-03-25T01:53:58;4.90;99.90
27226;DHT22;14732;51.074;3.788;2024-03-25T01:56:24;4.80;99.90
27226;DHT22;14732;51.074;3.788;2024-03-25T01:58:50;4.80;99.90
27226;DHT22;14732;51.074;3.788;2024-03-25T02:01:17;4.80;99.90
27226;DHT22;14732;51.074;3.788;2024-03-25T02:03:44;4.90;99.90
27226;DHT22;14732;51.074;3.788;2024-03-25T02:06:13;4.80;99.90
27226;DHT22;14732;51.074;3.788;2024-03-25T02:08:40;4.80;99.90
27226;DHT22;14732;51.074;3.788;2024-03-25T02:11:07;4.80;99.90
27226;DHT22;14732;51.074;3.788;2024-03-25T02:13:34;4.80;99.90
27226;DHT22;14732;51.074;3.788;2024-03-25T02:16:00;4.80;99.90
27226;DHT22;14732;51.074;3.788;2024-03-25T02:18:25;4.90;99.90
27226;DHT22;14732;51.074;3.788;2024-03-25T02:20:51;4.90;99.90
27226;DHT22;14732;51.074;3.788;2024-03-25T02:23:17;4.90;99.90
27226;DHT22;14732;51.074;3.788;2024-03-25T02:25:49;4.80;99.90
27226;DHT22;14732;51.074;3.788;2024-03-25T02:28:15;4.70;99.90
27226;DHT22;14732;51.074;3.788;2024-03-25T02:30:41;4.70;99.90
27226;DHT22;14732;51.074;3.788;2024-03-25T02:33:07;4.60;99.90
27226;DHT22;14732;51.074;3.788;2024-03-25T02:35:33;4.60;99.90
27226;DHT22;14732;51.074;3.788;2024-03-25T02:38:00;4.60;99.90
27226;DHT22;14732;51.074;3.788;2024-03-25T02:40:26;4.60;99.90
27226;DHT22;14732;51.074;3.788;2024-03-25T02:42:52;4.50;99.90
27226;DHT22;14732;51.074;3.788;2024-03-25T02:45:17;4.60;99.90
27226;DHT22;14732;51.074;3.788;2024-03-25T02:47:43;4.60;99.90
27226;DHT22;14732;51.074;3.788;2024-03-25T02:50:09;4.60;99.90
27226;DHT22;14732;51.074;3.788;2024-03-25T02:52:35;4.70;99.90
27226;DHT22;14732;51.074;3.788;2024-03-25T02:55:00;4.70;99.90
27226;DHT22;14732;51.074;3.788;2024-03-25T02:57:26;4.60;99.90
27226;DHT22;14732;51.074;3.788;2024-03-25T02:59:52;4.60;99.90
27226;DHT22;14732;51.074;3.788;2024-03-25T03:02:17;4.60;99.90
27226;DHT22;14732;51.074;3.788;2024-03-25T03:04:43;4.60;99.90
27226;DHT22;14732;51.074;3.788;2024-03-25T03:07:09;4.60;99.90
27226;DHT22;14732;51.074;3.788;2024-03-25T03:09:35;4.50;99.90
27226;DHT22;14732;51.074;3.788;2024-03-25T03:12:01;4.50;99.90
27226;DHT22;14732;51.074;3.788;2024-03-25T03:14:27;4.50;99.90
27226;DHT22;14732;51.074;3.788;2024-03-25T03:16:52;4.50;99.90
27226;DHT22;14732;51.074;3.788;2024-03-25T03:19:20;4.50;99.90
27226;DHT22;14732;51.074;3.788;2024-03-25T03:21:46;4.40;99.90
27226;DHT22;14732;51.074;3.788;2024-03-25T03:24:12;4.50;99.90
27226;DHT22;14732;51.074;3.788;2024-03-25T03:26:38;4.40;99.90
27226;DHT22;14732;51.074;3.788;2024-03-25T03:29:04;4.40;99.90
27226;DHT22;14732;51.074;3.788;2024-03-25T03:31:29;4.40;99.90
27226;DHT22;14732;51.074;3.788;2024-03-25T03:33:55;4.40;99.90
27226;DHT22;14732;51.074;3.788;2024-03-25T03:36:22;4.40;99.90
27226;DHT22;14732;51.074;3.788;2024-03-25T03:38:50;4.40;99.90
27226;DHT22;14732;51.074;3.788;2024-03-25T03:41:16;4.30;99.90
27226;DHT22;14732;51.074;3.788;2024-03-25T03:43:42;4.30;99.90
27226;DHT22;14732;51.074;3.788;2024-03-25T03:46:07;4.30;99.90
27226;DHT22;14732;51.074;3.788;2024-03-25T03:48:33;4.30;99.90
27226;DHT22;14732;51.074;3.788;2024-03-25T03:50:59;4.30;99.90
27226;DHT22;14732;51.074;3.788;2024-03-25T03:53:25;4.30;99.90
27226;DHT22;14732;51.074;3.788;2024-03-25T03:55:54;4.30;99.90
27226;DHT22;14732;51.074;3.788;2024-03-25T03:58:21;4.20;99.90
27226;DHT22;14732;51.074;3.788;2024-03-25T04:00:47;4.20;99.90
27226;DHT22;14732;51.074;3.788;2024-03-25T04:03:13;4.20;99.90
27226;DHT22;14732;51.074;3.788;2024-03-25T04:05:38;4.20;99.90
27226;DHT22;14732;51.074;3.788;2024-03-25T04:08:04;4.20;99.90
27226;DHT22;14732;51.074;3.788;2024-03-25T04:10:30;4.30;99.90
27226;DHT22;14732;51.074;3.788;2024-03-25T04:12:56;4.20;99.90
27226;DHT22;14732;51.074;3.788;2024-03-25T04:15:22;4.10;99.90
27226;DHT22;14732;51.074;3.788;2024-03-25T04:17:48;4.10;99.90
27226;DHT22;14732;51.074;3.788;2024-03-25T04:20:16;4.10;99.90
27226;DHT22;14732;51.074;3.788;2024-03-25T04:22:43;4.10;99.90
27226;DHT22;14732;51.074;3.788;2024-03-25T04:25:09;4.10;99.90
27226;DHT22;14732;51.074;3.788;2024-03-25T04:27:46;4.00;99.90
27226;DHT22;14732;51.074;3.788;2024-03-25T04:30:12;4.00;99.90
27226;DHT22;14732;51.074;3.788;2024-03-25T04:32:38;4.00;99.90
27226;DHT22;14732;51.074;3.788;2024-03-25T04:35:05;4.00;99.90
27226;DHT22;14732;51.074;3.788;2024-03-25T04:37:32;4.00;99.90
27226;DHT22;14732;51.074;3.788;2024-03-25T04:39:57;4.00;99.90
27226;DHT22;14732;51.074;3.788;2024-03-25T04:42:23;4.00;99.90
27226;DHT22;14732;51.074;3.788;2024-03-25T04:44:52;4.00;99.90
27226;DHT22;14732;51.074;3.788;2024-03-25T04:47:18;3.90;99.90
27226;DHT22;14732;51.074;3.788;2024-03-25T04:49:44;4.00;99.90
27226;DHT22;14732;51.074;3.788;2024-03-25T04:52:11;4.10;99.90
27226;DHT22;14732;51.074;3.788;2024-03-25T04:54:42;4.10;99.90
27226;DHT22;14732;51.074;3.788;2024-03-25T04:57:08;4.10;99.90
27226;DHT22;14732;51.074;3.788;2024-03-25T04:59:34;4.00;99.90
27226;DHT22;14732;51.074;3.788;2024-03-25T05:01:59;4.00;99.90
27226;DHT22;14732;51.074;3.788;2024-03-25T05:04:25;4.10;99.90
27226;DHT22;14732;51.074;3.788;2024-03-25T05:06:51;4.20;99.90
27226;DHT22;14732;51.074;3.788;2024-03-25T05:09:17;4.50;99.90
27226;DHT22;14732;51.074;3.788;2024-03-25T05:11:43;4.70;99.90
27226;DHT22;14732;51.074;3.788;2024-03-25T05:14:08;5.00;99.90
27226;DHT22;14732;51.074;3.788;2024-03-25T05:16:34;5.10;99.90
27226;DHT22;14732;51.074;3.788;2024-03-25T05:18:59;5.30;99.90
27226;DHT22;14732;51.074;3.788;2024-03-25T05:21:25;5.40;99.90
27226;DHT22;14732;51.074;3.788;2024-03-25T05:23:51;5.50;99.90
27226;DHT22;14732;51.074;3.788;2024-03-25T05:26:16;5.50;99.90
27226;DHT22;14732;51.074;3.788;2024-03-25T05:28:42;5.40;99.90
27226;DHT22;14732;51.074;3.788;2024-03-25T05:31:08;5.50;99.90
27226;DHT22;14732;51.074;3.788;2024-03-25T05:33:34;5.50;99.90
27226;DHT22;14732;51.074;3.788;2024-03-25T05:36:00;5.40;99.90
27226;DHT22;14732;51.074;3.788;2024-03-25T05:38:27;5.40;99.90
27226;DHT22;14732;51.074;3.788;2024-03-25T05:40:52;5.70;99.90
27226;DHT22;14732;51.074;3.788;2024-03-25T05:43:19;5.90;99.90
27226;DHT22;14732;51.074;3.788;2024-03-25T05:45:53;5.90;99.90
27226;DHT22;14732;51.074;3.788;2024-03-25T05:48:19;5.90;99.90
27226;DHT22;14732;51.074;3.788;2024-03-25T05:50:44;5.90;99.90
27226;DHT22;14732;51.074;3.788;2024-03-25T05:53:11;6.00;99.90
27226;DHT22;14732;51.074;3.788;2024-03-25T05:55:37;6.10;99.90
27226;DHT22;14732;51.074;3.788;2024-03-25T05:58:02;6.10;99.90
27226;DHT22;14732;51.074;3.788;2024-03-25T06:00:29;6.20;99.90
27226;DHT22;14732;51.074;3.788;2024-03-25T06:02:56;6.40;99.90
27226;DHT22;14732;51.074;3.788;2024-03-25T06:05:22;6.40;99.90
27226;DHT22;14732;51.074;3.788;2024-03-25T06:07:47;6.30;99.90
27226;DHT22;14732;51.074;3.788;2024-03-25T06:10:13;6.30;99.90
27226;DHT22;14732;51.074;3.788;2024-03-25T06:12:39;6.60;99.90
27226;DHT22;14732;51.074;3.788;2024-03-25T06:15:05;6.70;99.90
27226;DHT22;14732;51.074;3.788;2024-03-25T06:17:31;6.90;99.90
27226;DHT22;14732;51.074;3.788;2024-03-25T06:19:57;7.00;99.90
27226;DHT22;14732;51.074;3.788;2024-03-25T06:22:23;7.30;99.90
27226;DHT22;14732;51.074;3.788;2024-03-25T06:24:48;7.40;99.90
27226;DHT22;14732;51.074;3.788;2024-03-25T06:27:15;7.40;99.90
27226;DHT22;14732;51.074;3.788;2024-03-25T06:29:41;7.50;99.90
27226;DHT22;14732;51.074;3.788;2024-03-25T06:32:08;7.70;99.90
27226;DHT22;14732;51.074;3.788;2024-03-25T06:34:52;7.60;99.90
27226;DHT22;14732;51.074;3.788;2024-03-25T06:37:18;7.90;99.90
27226;DHT22;14732;51.074;3.788;2024-03-25T06:39:44;8.00;99.90
27226;DHT22;14732;51.074;3.788;2024-03-25T06:42:09;8.00;99.90
27226;DHT22;14732;51.074;3.788;2024-03-25T06:44:35;8.00;99.90
27226;DHT22;14732;51.074;3.788;2024-03-25T06:47:00;8.00;99.90
27226;DHT22;14732;51.074;3.788;2024-03-25T06:49:26;7.90;99.90
27226;DHT22;14732;51.074;3.788;2024-03-25T06:51:52;7.90;99.90
27226;DHT22;14732;51.074;3.788;2024-03-25T06:54:17;8.00;99.90
27226;DHT22;14732;51.074;3.788;2024-03-25T06:56:43;8.10;99.90
27226;DHT22;14732;51.074;3.788;2024-03-25T06:59:09;8.20;99.90
27226;DHT22;14732;51.074;3.788;2024-03-25T07:01:34;8.10;99.90
27226;DHT22;14732;51.074;3.788;2024-03-25T07:04:00;8.20;99.90
27226;DHT22;14732;51.074;3.788;2024-03-25T07:06:26;8.30;99.90
27226;DHT22;14732;51.074;3.788;2024-03-25T07:08:52;8.40;99.90
27226;DHT22;14732;51.074;3.788;2024-03-25T07:11:17;8.40;99.90
27226;DHT22;14732;51.074;3.788;2024-03-25T07:13:43;8.40;99.90
27226;DHT22;14732;51.074;3.788;2024-03-25T07:16:08;8.20;99.90
27226;DHT22;14732;51.074;3.788;2024-03-25T07:18:34;8.30;99.90
27226;DHT22;14732;51.074;3.788;2024-03-25T07:21:00;8.30;99.90
27226;DHT22;14732;51.074;3.788;2024-03-25T07:23:25;8.30;99.90
27226;DHT22;14732;51.074;3.788;2024-03-25T07:25:51;8.40;99.90
27226;DHT22;14732;51.074;3.788;2024-03-25T07:28:16;8.60;99.90
27226;DHT22;14732;51.074;3.788;2024-03-25T07:30:42;8.50;99.90
27226;DHT22;14732;51.074;3.788;2024-03-25T07:33:08;8.50;99.90
27226;DHT22;14732;51.074;3.788;2024-03-25T07:35:33;8.50;99.90
27226;DHT22;14732;51.074;3.788;2024-03-25T07:38:00;8.60;99.90
27226;DHT22;14732;51.074;3.788;2024-03-25T07:40:28;8.60;99.90
27226;DHT22;14732;51.074;3.788;2024-03-25T07:42:54;8.60;99.90
27226;DHT22;14732;51.074;3.788;2024-03-25T07:45:19;8.60;99.90
27226;DHT22;14732;51.074;3.788;2024-03-25T07:47:45;8.50;99.90
27226;DHT22;14732;51.074;3.788;2024-03-25T07:50:11;8.60;99.90
27226;DHT22;14732;51.074;3.788;2024-03-25T07:52:37;8.80;99.90
27226;DHT22;14732;51.074;3.788;2024-03-25T07:55:06;9.00;99.90
27226;DHT22;14732;51.074;3.788;2024-03-25T07:57:32;9.10;99.90
27226;DHT22;14732;51.074;3.788;2024-03-25T07:59:58;9.10;99.90
27226;DHT22;14732;51.074;3.788;2024-03-25T08:02:24;9.30;99.90
27226;DHT22;14732;51.074;3.788;2024-03-25T08:04:50;9.40;99.90
27226;DHT22;14732;51.074;3.788;2024-03-25T08:07:15;9.40;99.90
27226;DHT22;14732;51.074;3.788;2024-03-25T08:09:41;9.50;99.90
27226;DHT22;14732;51.074;3.788;2024-03-25T08:12:07;9.80;99.90
27226;DHT22;14732;51.074;3.788;2024-03-25T08:14:32;9.80;99.90
27226;DHT22;14732;51.074;3.788;2024-03-25T08:16:58;9.90;99.90
27226;DHT22;14732;51.074;3.788;2024-03-25T08:19:24;10.20;99.90
27226;DHT22;14732;51.074;3.788;2024-03-25T08:21:50;10.40;99.90
27226;DHT22;14732;51.074;3.788;2024-03-25T08:24:16;10.60;99.90
27226;DHT22;14732;51.074;3.788;2024-03-25T08:26:42;10.70;99.90
27226;DHT22;14732;51.074;3.788;2024-03-25T08:29:07;10.60;99.90
27226;DHT22;14732;51.074;3.788;2024-03-25T08:31:33;10.60;99.90
27226;DHT22;14732;51.074;3.788;2024-03-25T08:33:58;10.40;99.90
27226;DHT22;14732;51.074;3.788;2024-03-25T08:36:24;10.30;99.90
27226;DHT22;14732;51.074;3.788;2024-03-25T08:38:50;10.70;99.90
27226;DHT22;14732;51.074;3.788;2024-03-25T08:41:15;11.20;99.90
27226;DHT22;14732;51.074;3.788;2024-03-25T08:43:41;11.60;99.90
27226;DHT22;14732;51.074;3.788;2024-03-25T08:46:06;11.90;99.90
27226;DHT22;14732;51.074;3.788;2024-03-25T08:48:32;12.50;99.90
27226;DHT22;14732;51.074;3.788;2024-03-25T08:50:58;13.10;99.90
27226;DHT22;14732;51.074;3.788;2024-03-25T08:53:23;12.60;99.90
27226;DHT22;14732;51.074;3.788;2024-03-25T08:55:49;12.80;99.90
27226;DHT22;14732;51.074;3.788;2024-03-25T08:58:15;12.90;99.90
27226;DHT22;14732;51.074;3.788;2024-03-25T09:00:42;13.20;99.90
27226;DHT22;14732;51.074;3.788;2024-03-25T09:03:08;13.20;99.90
27226;DHT22;14732;51.074;3.788;2024-03-25T09:05:36;13.50;99.90
27226;DHT22;14732;51.074;3.788;2024-03-25T09:08:02;14.00;99.90
27226;DHT22;14732;51.074;3.788;2024-03-25T09:10:28;14.50;99.90
27226;DHT22;14732;51.074;3.788;2024-03-25T09:13:13;16.10;99.90
27226;DHT22;14732;51.074;3.788;2024-03-25T09:15:38;16.80;99.90
27226;DHT22;14732;51.074;3.788;2024-03-25T09:18:04;17.90;99.90
27226;DHT22;14732;51.074;3.788;2024-03-25T09:20:30;18.80;99.90
27226;DHT22;14732;51.074;3.788;2024-03-25T09:22:55;19.30;99.90
27226;DHT22;14732;51.074;3.788;2024-03-25T09:25:21;20.60;99.90
27226;DHT22;14732;51.074;3.788;2024-03-25T09:27:49;20.90;99.90
27226;DHT22;14732;51.074;3.788;2024-03-25T09:30:15;22.50;99.90
27226;DHT22;14732;51.074;3.788;2024-03-25T09:32:41;23.30;99.90
27226;DHT22;14732;51.074;3.788;2024-03-25T09:35:10;23.50;99.90
27226;DHT22;14732;51.074;3.788;2024-03-25T09:37:37;23.30;99.90
27226;DHT22;14732;51.074;3.788;2024-03-25T09:40:03;21.30;99.90
27226;DHT22;14732;51.074;3.788;2024-03-25T09:42:56;19.80;99.90
27226;DHT22;14732;51.074;3.788;2024-03-25T09:45:25;19.10;99.90
27226;DHT22;14732;51.074;3.788;2024-03-25T09:47:53;18.60;99.90
27226;DHT22;14732;51.074;3.788;2024-03-25T09:50:20;17.70;99.90
27226;DHT22;14732;51.074;3.788;2024-03-25T09:52:46;17.30;99.90
27226;DHT22;14732;51.074;3.788;2024-03-25T09:55:12;16.80;99.90
27226;DHT22;14732;51.074;3.788;2024-03-25T09:57:38;16.60;99.90
27226;DHT22;14732;51.074;3.788;2024-03-25T10:00:05;16.10;99.90
27226;DHT22;14732;51.074;3.788;2024-03-25T10:02:33;15.90;99.90
27226;DHT22;14732;51.074;3.788;2024-03-25T10:04:59;15.50;99.90
27226;DHT22;14732;51.074;3.788;2024-03-25T10:07:25;14.90;99.90
27226;DHT22;14732;51.074;3.788;2024-03-25T10:09:51;15.10;99.90
27226;DHT22;14732;51.074;3.788;2024-03-25T10:12:17;15.20;99.90
27226;DHT22;14732;51.074;3.788;2024-03-25T10:14:43;15.30;99.90
27226;DHT22;14732;51.074;3.788;2024-03-25T10:17:09;15.40;99.90
27226;DHT22;14732;51.074;3.788;2024-03-25T10:19:35;14.80;99.90
27226;DHT22;14732;51.074;3.788;2024-03-25T10:22:05;15.10;99.90
27226;DHT22;14732;51.074;3.788;2024-03-25T10:24:38;14.70;99.90
27226;DHT22;14732;51.074;3.788;2024-03-25T10:27:04;14.50;99.90
27226;DHT22;14732;51.074;3.788;2024-03-25T10:29:30;14.80;99.90
27226;DHT22;14732;51.074;3.788;2024-03-25T10:31:59;15.10;99.90
27226;DHT22;14732;51.074;3.788;2024-03-25T10:34:25;15.20;99.90
27226;DHT22;14732;51.074;3.788;2024-03-25T10:36:54;15.30;99.90
27226;DHT22;14732;51.074;3.788;2024-03-25T10:39:26;15.50;99.90
27226;DHT22;14732;51.074;3.788;2024-03-25T10:41:57;15.80;99.90
27226;DHT22;14732;51.074;3.788;2024-03-25T10:44:24;15.90;99.90
27226;DHT22;14732;51.074;3.788;2024-03-25T10:46:57;15.70;99.90
27226;DHT22;14732;51.074;3.788;2024-03-25T10:52:05;14.80;99.90
27226;DHT22;14732;51.074;3.788;2024-03-25T10:54:32;14.80;99.90
27226;DHT22;14732;51.074;3.788;2024-03-25T10:56:58;14.80;99.90
27226;DHT22;14732;51.074;3.788;2024-03-25T10:59:26;14.40;99.90
27226;DHT22;14732;51.074;3.788;2024-03-25T11:01:55;14.70;99.90
27226;DHT22;14732;51.074;3.788;2024-03-25T11:04:23;14.90;99.90
27226;DHT22;14732;51.074;3.788;2024-03-25T11:06:52;14.90;99.90
27226;DHT22;14732;51.074;3.788;2024-03-25T11:09:26;14.90;99.90
27226;DHT22;14732;51.074;3.788;2024-03-25T11:11:53;15.20;99.90
27226;DHT22;14732;51.074;3.788;2024-03-25T11:14:19;15.30;99.90
27226;DHT22;14732;51.074;3.788;2024-03-25T11:16:52;15.30;99.90
27226;DHT22;14732;51.074;3.788;2024-03-25T11:19:18;15.10;99.90
27226;DHT22;14732;51.074;3.788;2024-03-25T11:21:44;14.80;99.90
27226;DHT22;14732;51.074;3.788;2024-03-25T11:24:10;14.70;99.90
27226;DHT22;14732;51.074;3.788;2024-03-25T11:26:41;14.80;99.90
27226;DHT22;14732;51.074;3.788;2024-03-25T11:29:07;14.40;99.90
27226;DHT22;14732;51.074;3.788;2024-03-25T11:31:33;14.40;99.90
27226;DHT22;14732;51.074;3.788;2024-03-25T11:34:04;14.70;99.90
27226;DHT22;14732;51.074;3.788;2024-03-25T11:36:30;15.10;99.90
27226;DHT22;14732;51.074;3.788;2024-03-25T11:39:03;15.20;99.90
27226;DHT22;14732;51.074;3.788;2024-03-25T11:41:41;15.20;99.90
27226;DHT22;14732;51.074;3.788;2024-03-25T11:44:11;15.20;99.90
27226;DHT22;14732;51.074;3.788;2024-03-25T11:46:40;15.40;99.90
27226;DHT22;14732;51.074;3.788;2024-03-25T11:49:07;15.30;99.90
27226;DHT22;14732;51.074;3.788;2024-03-25T11:51:36;15.40;99.90
27226;DHT22;14732;51.074;3.788;2024-03-25T11:54:04;15.50;99.90
27226;DHT22;14732;51.074;3.788;2024-03-25T11:56:33;15.40;99.90
27226;DHT22;14732;51.074;3.788;2024-03-25T11:58:59;14.90;99.90
27226;DHT22;14732;51.074;3.788;2024-03-25T12:01:26;14.30;99.90
27226;DHT22;14732;51.074;3.788;2024-03-25T12:03:52;13.30;99.90
27226;DHT22;14732;51.074;3.788;2024-03-25T12:06:18;13.30;99.90
27226;DHT22;14732;51.074;3.788;2024-03-25T12:08:43;13.60;99.90
27226;DHT22;14732;51.074;3.788;2024-03-25T12:11:28;13.90;99.90
27226;DHT22;14732;51.074;3.788;2024-03-25T12:13:53;13.90;99.90
27226;DHT22;14732;51.074;3.788;2024-03-25T12:16:19;14.00;99.90
27226;DHT22;14732;51.074;3.788;2024-03-25T12:18:45;14.30;99.90
27226;DHT22;14732;51.074;3.788;2024-03-25T12:21:11;14.30;99.90
27226;DHT22;14732;51.074;3.788;2024-03-25T12:23:36;14.60;99.90
27226;DHT22;14732;51.074;3.788;2024-03-25T12:26:04;14.70;99.90
27226;DHT22;14732;51.074;3.788;2024-03-25T12:28:32;14.40;99.90
27226;DHT22;14732;51.074;3.788;2024-03-25T12:31:07;14.30;99.90
27226;DHT22;14732;51.074;3.788;2024-03-25T12:33:40;13.90;99.90
27226;DHT22;14732;51.074;3.788;2024-03-25T12:36:06;14.00;99.90
27226;DHT22;14732;51.074;3.788;2024-03-25T12:38:32;14.60;99.90
27226;DHT22;14732;51.074;3.788;2024-03-25T12:41:06;14.90;99.90
27226;DHT22;14732;51.074;3.788;2024-03-25T12:43:32;14.80;99.90
27226;DHT22;14732;51.074;3.788;2024-03-25T12:45:59;14.70;99.90
27226;DHT22;14732;51.074;3.788;2024-03-25T12:48:25;14.70;99.90
27226;DHT22;14732;51.074;3.788;2024-03-25T12:50:51;14.90;99.90
27226;DHT22;14732;51.074;3.788;2024-03-25T12:53:18;14.80;99.90
27226;DHT22;14732;51.074;3.788;2024-03-25T12:55:47;14.80;99.90
27226;DHT22;14732;51.074;3.788;2024-03-25T12:58:13;15.10;99.90
27226;DHT22;14732;51.074;3.788;2024-03-25T13:00:39;14.90;99.90
27226;DHT22;14732;51.074;3.788;2024-03-25T13:03:06;14.80;99.90
27226;DHT22;14732;51.074;3.788;2024-03-25T13:05:33;14.60;99.90
27226;DHT22;14732;51.074;3.788;2024-03-25T13:07:59;15.00;99.90
27226;DHT22;14732;51.074;3.788;2024-03-25T13:10:25;14.90;99.90
27226;DHT22;14732;51.074;3.788;2024-03-25T13:12:50;14.80;99.90
27226;DHT22;14732;51.074;3.788;2024-03-25T13:15:16;15.20;99.90
27226;DHT22;14732;51.074;3.788;2024-03-25T13:17:42;15.50;99.90
27226;DHT22;14732;51.074;3.788;2024-03-25T13:20:08;15.60;99.90
27226;DHT22;14732;51.074;3.788;2024-03-25T13:22:33;15.50;99.90
27226;DHT22;14732;51.074;3.788;2024-03-25T13:24:59;15.00;99.90
27226;DHT22;14732;51.074;3.788;2024-03-25T13:27:25;14.50;99.90
27226;DHT22;14732;51.074;3.788;2024-03-25T13:29:51;14.50;99.90
27226;DHT22;14732;51.074;3.788;2024-03-25T13:32:19;14.50;99.90
27226;DHT22;14732;51.074;3.788;2024-03-25T13:34:44;14.30;99.90
27226;DHT22;14732;51.074;3.788;2024-03-25T13:37:11;14.00;99.90
27226;DHT22;14732;51.074;3.788;2024-03-25T13:39:36;13.90;99.90
27226;DHT22;14732;51.074;3.788;2024-03-25T13:42:02;14.20;99.90
27226;DHT22;14732;51.074;3.788;2024-03-25T13:44:28;14.40;99.90
27226;DHT22;14732;51.074;3.788;2024-03-25T13:46:54;14.50;99.90
27226;DHT22;14732;51.074;3.788;2024-03-25T13:49:19;14.70;99.90
27226;DHT22;14732;51.074;3.788;2024-03-25T13:51:45;14.30;99.90
27226;DHT22;14732;51.074;3.788;2024-03-25T13:54:11;14.30;99.90
27226;DHT22;14732;51.074;3.788;2024-03-25T13:56:37;14.20;99.90
27226;DHT22;14732;51.074;3.788;2024-03-25T13:59:03;14.20;99.90
27226;DHT22;14732;51.074;3.788;2024-03-25T14:01:28;13.90;99.90
27226;DHT22;14732;51.074;3.788;2024-03-25T14:03:54;14.00;99.90
27226;DHT22;14732;51.074;3.788;2024-03-25T14:06:20;14.20;99.90
27226;DHT22;14732;51.074;3.788;2024-03-25T14:08:46;14.60;99.90
27226;DHT22;14732;51.074;3.788;2024-03-25T14:11:11;14.80;99.90
27226;DHT22;14732;51.074;3.788;2024-03-25T14:13:37;14.90;99.90
27226;DHT22;14732;51.074;3.788;2024-03-25T14:16:03;15.00;99.90
27226;DHT22;14732;51.074;3.788;2024-03-25T14:18:29;15.00;99.90
27226;DHT22;14732;51.074;3.788;2024-03-25T14:20:56;15.20;99.90
27226;DHT22;14732;51.074;3.788;2024-03-25T14:23:22;15.40;99.90
27226;DHT22;14732;51.074;3.788;2024-03-25T14:25:48;15.50;99.90
27226;DHT22;14732;51.074;3.788;2024-03-25T14:28:13;15.80;99.90
27226;DHT22;14732;51.074;3.788;2024-03-25T14:30:39;15.80;99.90
27226;DHT22;14732;51.074;3.788;2024-03-25T14:33:05;15.40;99.90
27226;DHT22;14732;51.074;3.788;2024-03-25T14:35:30;14.30;99.90
27226;DHT22;14732;51.074;3.788;2024-03-25T14:37:56;14.10;99.90
27226;DHT22;14732;51.074;3.788;2024-03-25T14:40:22;14.20;99.90
27226;DHT22;14732;51.074;3.788;2024-03-25T14:42:47;14.30;99.90
27226;DHT22;14732;51.074;3.788;2024-03-25T14:45:13;14.30;99.90
27226;DHT22;14732;51.074;3.788;2024-03-25T14:47:38;13.90;99.90
27226;DHT22;14732;51.074;3.788;2024-03-25T14:50:04;13.70;99.90
27226;DHT22;14732;51.074;3.788;2024-03-25T14:52:32;13.50;99.90
27226;DHT22;14732;51.074;3.788;2024-03-25T14:54:58;13.60;99.90
27226;DHT22;14732;51.074;3.788;2024-03-25T14:57:24;13.40;99.90
27226;DHT22;14732;51.074;3.788;2024-03-25T14:59:49;13.40;99.90
27226;DHT22;14732;51.074;3.788;2024-03-25T15:02:15;13.30;99.90
27226;DHT22;14732;51.074;3.788;2024-03-25T15:04:41;13.50;99.90
27226;DHT22;14732;51.074;3.788;2024-03-25T15:07:13;13.70;99.90
27226;DHT22;14732;51.074;3.788;2024-03-25T15:09:38;14.10;99.90
27226;DHT22;14732;51.074;3.788;2024-03-25T15:12:05;14.50;99.90
27226;DHT22;14732;51.074;3.788;2024-03-25T15:14:31;14.50;99.90
27226;DHT22;14732;51.074;3.788;2024-03-25T15:16:57;14.40;99.90
27226;DHT22;14732;51.074;3.788;2024-03-25T15:19:26;14.30;99.90
27226;DHT22;14732;51.074;3.788;2024-03-25T15:21:52;14.70;99.90
27226;DHT22;14732;51.074;3.788;2024-03-25T15:24:17;14.70;99.90
27226;DHT22;14732;51.074;3.788;2024-03-25T15:26:43;14.30;99.90
27226;DHT22;14732;51.074;3.788;2024-03-25T15:29:09;14.20;99.90
27226;DHT22;14732;51.074;3.788;2024-03-25T15:31:35;14.10;99.90
27226;DHT22;14732;51.074;3.788;2024-03-25T15:34:01;14.30;99.90
27226;DHT22;14732;51.074;3.788;2024-03-25T15:36:26;14.40;99.90
27226;DHT22;14732;51.074;3.788;2024-03-25T15:38:54;14.80;99.90